Time;durP1;ratioP1;P1;durP2;ratioP2;P2;SDS_P1;SDS_P2;PMS_P1;PMS_P2;Temp;Humidity;BMP_temperature;BMP_pressure;BME280_temperature;BME280_humidity;BME280_pressure;Samples;Min_cycle;Max_cycle;Signal;HPM_P1;HPM_P2
2024/01/17 00:01:04;;;;;;;0.50;0.10;;;0.10;23.10;;;;;;5082961;28;20456;-72
2024/01/17 00:03:32;;;;;;;9.80;8.90;;;0.00;22.70;;;;;;5090344;28;20436;-72
2024/01/17 00:06:01;;;;;;;0.50;0.20;;;0.00;22.30;;;;;;5090065;28;20452;-72
2024/01/17 00:08:29;;;;;;;0.50;0.10;;;-0.10;22.10;;;;;;5089942;28;20472;-71
2024/01/17 00:10:57;;;;;;;0.50;0.10;;;-0.10;22.60;;;;;;5090289;28;20440;-71
2024/01/17 00:13:25;;;;;;;0.50;0.10;;;-0.10;22.70;;;;;;5089909;28;20564;-72
2024/01/17 00:15:53;;;;;;;0.50;0.10;;;-0.20;23.20;;;;;;5076831;28;20460;-71
2024/01/17 00:18:21;;;;;;;0.50;0.10;;;-0.30;22.90;;;;;;5091987;28;20486;-72
2024/01/17 00:20:49;;;;;;;0.50;0.10;;;-0.30;23.60;;;;;;5082418;28;20931;-72
2024/01/17 00:23:18;;;;;;;0.50;0.10;;;-0.30;24.00;;;;;;5079780;28;20936;-71
2024/01/17 00:25:46;;;;;;;0.50;0.10;;;-0.30;24.80;;;;;;5091542;28;20940;-71
2024/01/17 00:28:14;;;;;;;0.50;0.10;;;-0.30;25.20;;;;;;5092068;28;20478;-73
2024/01/17 00:30:42;;;;;;;0.50;0.10;;;-0.20;25.60;;;;;;5090015;28;20436;-72
2024/01/17 00:33:10;;;;;;;0.50;0.10;;;-0.20;25.50;;;;;;5071612;28;20480;-71
2024/01/17 00:35:39;;;;;;;0.50;0.10;;;-0.30;25.50;;;;;;5082107;28;20544;-71
2024/01/17 00:38:07;;;;;;;0.50;0.10;;;-0.30;25.60;;;;;;5071495;28;20441;-71
2024/01/17 00:40:36;;;;;;;0.50;0.10;;;-0.20;26.30;;;;;;5071578;28;20437;-71
2024/01/17 00:43:04;;;;;;;0.50;0.10;;;-0.20;26.50;;;;;;5074898;28;20436;-70
2024/01/17 00:45:32;;;;;;;0.50;0.10;;;-0.10;27.20;;;;;;5079458;28;20436;-72
2024/01/17 00:48:00;;;;;;;0.50;0.10;;;-0.20;26.50;;;;;;5071468;28;20472;-71
2024/01/17 00:50:28;;;;;;;0.50;0.10;;;-0.20;25.90;;;;;;5074536;28;20444;-71
2024/01/17 00:52:56;;;;;;;0.50;0.10;;;-0.20;25.80;;;;;;5095927;28;20476;-71
2024/01/17 00:55:24;;;;;;;0.50;0.10;;;-0.20;25.30;;;;;;5086092;28;20536;-71
2024/01/17 00:57:53;;;;;;;0.50;0.10;;;-0.30;24.60;;;;;;5075587;28;20476;-71
2024/01/17 01:00:21;;;;;;;0.50;0.20;;;-0.40;24.50;;;;;;5090653;28;21052;-71
2024/01/17 01:02:49;;;;;;;0.50;0.20;;;;;;;;;;5095722;28;20433;-71
2024/01/17 01:05:17;;;;;;;0.50;0.10;;;-0.50;24.90;;;;;;5095878;28;20521;-71
2024/01/17 01:07:47;;;;;;;0.67;0.60;;;;;;;;;;5095424;28;20543;-72
2024/01/17 01:10:15;;;;;;;0.50;0.10;;;-0.40;27.50;;;;;;5094005;28;20817;-72
2024/01/17 01:12:43;;;;;;;0.50;0.10;;;-0.40;28.40;;;;;;5092591;28;21731;-72
2024/01/17 01:15:13;;;;;;;0.50;0.10;;;;;;;;;;5075621;28;20468;-71
2024/01/17 01:17:40;;;;;;;0.50;0.10;;;-0.40;27.80;;;;;;5083184;28;20468;-72
2024/01/17 01:20:10;;;;;;;0.50;0.10;;;-0.40;27.00;;;;;;5088455;28;20526;-72
2024/01/17 01:22:37;;;;;;;0.60;0.43;;;-0.40;27.40;;;;;;5086517;28;20445;-71
2024/01/17 01:25:06;;;;;;;0.50;0.10;;;-0.40;27.90;;;;;;5076285;28;20848;-71
2024/01/17 01:27:34;;;;;;;0.50;0.10;;;-0.40;27.90;;;;;;5086727;28;20499;-71
2024/01/17 01:30:02;;;;;;;0.50;0.20;;;-0.50;27.90;;;;;;5094928;28;20442;-71
2024/01/17 01:32:31;;;;;;;0.50;0.10;;;-0.40;28.60;;;;;;5087405;28;20939;-71
2024/01/17 01:34:59;;;;;;;0.50;0.10;;;-0.30;28.50;;;;;;5074530;28;20992;-73
2024/01/17 01:37:27;;;;;;;0.50;0.10;;;-0.30;28.60;;;;;;5084393;28;20471;-71
2024/01/17 01:39:55;;;;;;;0.50;0.10;;;-0.30;27.90;;;;;;5094044;28;20449;-71
2024/01/17 01:42:23;;;;;;;0.50;0.10;;;-0.40;27.60;;;;;;5094437;28;20459;-72
2024/01/17 01:44:51;;;;;;;0.50;0.10;;;-0.40;27.40;;;;;;5086669;28;20444;-72
2024/01/17 01:47:19;;;;;;;0.50;0.10;;;-0.50;27.40;;;;;;5085432;28;20457;-71
2024/01/17 01:49:49;;;;;;;0.50;0.10;;;-0.50;28.10;;;;;;5091576;28;20448;-70
2024/01/17 01:52:20;;;;;;;0.50;0.10;;;-0.40;28.60;;;;;;5083628;28;20846;-72
2024/01/17 01:54:48;;;;;;;0.50;0.10;;;-0.40;28.80;;;;;;5082722;28;20481;-71
2024/01/17 01:57:17;;;;;;;0.50;0.10;;;-0.40;27.80;;;;;;5078150;28;20567;-70
2024/01/17 01:59:46;;;;;;;0.50;0.10;;;-0.40;27.80;;;;;;5093916;28;20471;-71
2024/01/17 02:02:15;;;;;;;0.50;0.10;;;-0.40;27.70;;;;;;5089430;28;20498;-71
2024/01/17 02:04:43;;;;;;;0.50;0.10;;;-0.50;27.50;;;;;;5083648;28;20479;-71
2024/01/17 02:07:15;;;;;;;0.50;0.10;;;-0.50;27.90;;;;;;5086666;28;20948;-71
2024/01/17 02:09:44;;;;;;;0.50;0.10;;;-0.50;27.70;;;;;;5086056;28;20876;-71
2024/01/17 02:12:12;;;;;;;0.50;0.10;;;-0.50;28.80;;;;;;5084678;28;20491;-71
2024/01/17 02:14:41;;;;;;;0.50;0.10;;;-0.40;29.00;;;;;;5088500;28;20484;-71
2024/01/17 02:17:09;;;;;;;0.50;0.20;;;-0.40;29.10;;;;;;5085361;28;20467;-72
2024/01/17 02:19:41;;;;;;;0.50;0.10;;;-0.40;28.60;;;;;;5085211;28;20445;-70
2024/01/17 02:22:09;;;;;;;0.50;0.10;;;-0.40;27.20;;;;;;5085976;28;20436;-72
2024/01/17 02:24:38;;;;;;;0.50;0.10;;;-0.50;27.50;;;;;;5085713;28;20528;-70
2024/01/17 02:27:06;;;;;;;0.50;0.10;;;-0.40;27.90;;;;;;5081821;28;20489;-71
2024/01/17 02:29:34;;;;;;;0.50;0.10;;;-0.50;27.00;;;;;;5083020;28;20450;-71
2024/01/17 02:32:02;;;;;;;0.50;0.10;;;-0.60;27.40;;;;;;5085859;28;20447;-71
2024/01/17 02:34:30;;;;;;;0.50;0.10;;;-0.50;27.60;;;;;;5089023;28;20491;-72
2024/01/17 02:36:58;;;;;;;0.50;0.10;;;-0.60;27.60;;;;;;5085648;28;20472;-71
2024/01/17 02:39:26;;;;;;;0.50;0.10;;;-0.70;27.20;;;;;;5093126;28;20475;-70
2024/01/17 02:41:55;;;;;;;0.50;0.10;;;-0.70;27.50;;;;;;5087209;28;20937;-71
2024/01/17 02:44:23;;;;;;;0.50;0.10;;;-0.70;27.50;;;;;;5087284;28;20457;-71
2024/01/17 02:46:51;;;;;;;0.50;0.10;;;;;;;;;;5092876;28;20539;-71
2024/01/17 02:49:21;;;;;;;0.50;0.10;;;-0.80;28.30;;;;;;5082436;28;20445;-71
2024/01/17 02:51:49;;;;;;;0.50;0.10;;;-0.80;28.60;;;;;;5087886;28;20467;-71
2024/01/17 02:54:16;;;;;;;0.50;0.10;;;-0.70;29.40;;;;;;5091217;28;20984;-71
2024/01/17 02:56:45;;;;;;;0.50;0.10;;;-0.70;30.00;;;;;;5089895;22;21013;-73
2024/01/17 02:59:14;;;;;;;0.50;0.10;;;-0.60;30.50;;;;;;5053030;28;20450;-72
2024/01/17 03:01:42;;;;;;;0.50;0.10;;;-0.60;30.00;;;;;;5053583;28;20938;-73
2024/01/17 03:04:10;;;;;;;0.50;0.10;;;-0.60;29.30;;;;;;5053301;28;20853;-73
2024/01/17 03:06:38;;;;;;;0.50;0.10;;;-0.60;29.80;;;;;;5052308;28;20519;-72
2024/01/17 03:09:06;;;;;;;0.50;0.10;;;-0.60;29.20;;;;;;5051694;28;20448;-74
2024/01/17 03:11:34;;;;;;;0.50;0.10;;;-0.60;29.10;;;;;;5052359;28;20456;-72
2024/01/17 03:14:03;;;;;;;0.50;0.10;;;-0.50;29.30;;;;;;5053329;28;20569;-72
2024/01/17 03:16:32;;;;;;;0.50;0.10;;;-0.60;28.70;;;;;;5054793;28;20462;-73
2024/01/17 03:19:00;;;;;;;0.50;0.10;;;-0.60;28.70;;;;;;5053206;28;20450;-72
2024/01/17 03:21:28;;;;;;;0.50;0.10;;;-0.50;29.00;;;;;;5052571;28;20450;-72
2024/01/17 03:23:58;;;;;;;0.50;0.10;;;-0.50;29.10;;;;;;5052701;28;20529;-74
2024/01/17 03:26:26;;;;;;;0.50;0.10;;;-0.50;28.50;;;;;;5051694;28;20469;-74
2024/01/17 03:28:54;;;;;;;0.50;0.10;;;-0.50;28.70;;;;;;5048609;28;20505;-72
2024/01/17 03:31:22;;;;;;;0.50;0.10;;;-0.50;28.50;;;;;;5047303;28;20891;-74
2024/01/17 03:33:51;;;;;;;0.97;0.90;;;-0.50;28.10;;;;;;5053497;28;20938;-73
2024/01/17 03:36:19;;;;;;;0.70;0.50;;;-0.50;27.80;;;;;;5052302;28;20461;-73
2024/01/17 03:38:47;;;;;;;0.50;0.10;;;-0.60;27.30;;;;;;5052570;28;21013;-73
2024/01/17 03:41:15;;;;;;;0.50;0.10;;;-0.60;27.00;;;;;;5053026;28;20971;-74
2024/01/17 03:43:43;;;;;;;0.50;0.10;;;-0.60;27.70;;;;;;5051827;28;20893;-72
2024/01/17 03:46:11;;;;;;;0.50;0.10;;;-0.60;27.90;;;;;;5052634;28;20983;-71
2024/01/17 03:48:39;;;;;;;0.50;0.10;;;-0.50;28.40;;;;;;5055466;28;20453;-73
2024/01/17 03:51:09;;;;;;;0.50;0.30;;;-0.50;27.70;;;;;;5050602;28;20449;-73
2024/01/17 03:53:37;;;;;;;0.50;0.10;;;-0.60;26.40;;;;;;5056086;28;20870;-73
2024/01/17 03:56:05;;;;;;;0.63;0.63;;;-0.60;26.80;;;;;;5055287;28;20544;-73
2024/01/17 03:58:33;;;;;;;0.60;0.30;;;-0.60;26.30;;;;;;5053203;28;20544;-73
2024/01/17 04:01:02;;;;;;;0.50;0.10;;;-0.60;26.30;;;;;;5052793;28;20910;-73
2024/01/17 04:03:30;;;;;;;0.50;0.10;;;-0.60;26.60;;;;;;5050992;28;20466;-74
2024/01/17 04:05:58;;;;;;;0.50;0.10;;;-0.60;26.80;;;;;;5052655;28;20580;-74
2024/01/17 04:08:27;;;;;;;0.50;0.10;;;1.20;27.70;;;;;;5048013;28;20526;-74
2024/01/17 04:10:55;;;;;;;0.50;0.10;;;-0.60;26.40;;;;;;5052104;28;20446;-73
2024/01/17 04:13:23;;;;;;;0.50;0.10;;;-0.50;27.10;;;;;;5049117;28;20438;-73
2024/01/17 04:15:51;;;;;;;0.50;0.10;;;-0.60;25.90;;;;;;5051432;28;20482;-73
2024/01/17 04:18:19;;;;;;;1.60;1.50;;;-0.60;25.60;;;;;;5052778;28;20541;-73
2024/01/17 04:20:47;;;;;;;0.50;0.10;;;-0.70;25.00;;;;;;5051738;28;20457;-73
2024/01/17 04:23:15;;;;;;;0.50;0.10;;;-0.70;24.40;;;;;;5051337;28;20458;-73
2024/01/17 04:25:44;;;;;;;0.50;0.10;;;-0.70;24.50;;;;;;5050942;28;20434;-72
2024/01/17 04:28:13;;;;;;;0.50;0.10;;;-0.80;24.50;;;;;;5044411;28;20446;-73
2024/01/17 04:30:41;;;;;;;0.50;0.10;;;-0.80;24.70;;;;;;5051725;28;20533;-73
2024/01/17 04:33:10;;;;;;;0.50;0.10;;;-0.70;26.00;;;;;;5051728;28;20449;-73
2024/01/17 04:35:38;;;;;;;0.50;0.10;;;-0.70;25.50;;;;;;5051031;28;20961;-73
2024/01/17 04:38:06;;;;;;;0.50;0.10;;;-0.70;25.10;;;;;;5043321;28;20446;-74
2024/01/17 04:40:33;;;;;;;0.50;0.10;;;-0.70;24.90;;;;;;5050972;28;20450;-74
2024/01/17 04:43:03;;;;;;;0.50;0.10;;;0.60;24.70;;;;;;5051189;28;20545;-73
2024/01/17 04:45:31;;;;;;;0.50;0.10;;;-0.80;24.50;;;;;;5051531;28;20549;-72
2024/01/17 04:47:59;;;;;;;1.47;1.37;;;-0.80;24.20;;;;;;5051401;28;20886;-73
2024/01/17 04:50:28;;;;;;;0.50;0.10;;;-0.80;24.70;;;;;;5051820;28;20451;-73
2024/01/17 04:52:56;;;;;;;0.50;0.10;;;-0.80;24.80;;;;;;5053788;28;20445;-73
2024/01/17 04:55:24;;;;;;;0.50;0.10;;;-0.80;24.50;;;;;;5053312;28;20585;-73
2024/01/17 04:57:52;;;;;;;0.50;0.10;;;-0.80;24.90;;;;;;5051262;28;20473;-73
2024/01/17 05:00:21;;;;;;;0.50;0.10;;;-0.80;24.70;;;;;;5051346;28;20533;-72
2024/01/17 05:02:49;;;;;;;0.50;0.10;;;-0.80;24.20;;;;;;5046049;28;21034;-74
2024/01/17 05:05:17;;;;;;;0.50;0.10;;;-0.70;24.60;;;;;;5050679;28;20448;-73
2024/01/17 05:07:45;;;;;;;0.50;0.10;;;-0.90;24.10;;;;;;5051090;28;20469;-74
2024/01/17 05:10:13;;;;;;;0.50;0.10;;;3.20;26.40;;;;;;5050368;28;20507;-74
2024/01/17 05:12:41;;;;;;;0.50;0.10;;;-0.80;24.10;;;;;;5050849;28;20446;-72
2024/01/17 05:15:09;;;;;;;0.50;0.10;;;-0.90;24.20;;;;;;5050669;28;21058;-72
2024/01/17 05:17:38;;;;;;;0.50;0.10;;;-0.80;24.20;;;;;;5049291;28;20991;-72
2024/01/17 05:20:09;;;;;;;0.50;0.10;;;-0.90;23.80;;;;;;5048919;28;20482;-72
2024/01/17 05:22:39;;;;;;;0.50;0.10;;;-0.80;24.70;;;;;;5048932;28;20472;-72
2024/01/17 05:25:11;;;;;;;2.57;2.50;;;-0.80;24.20;;;;;;5050006;28;20534;-72
2024/01/17 05:27:39;;;;;;;0.50;0.10;;;-0.80;24.10;;;;;;5050522;28;20469;-74
2024/01/17 05:30:09;;;;;;;0.50;0.10;;;-0.80;24.30;;;;;;5049423;28;20442;-73
2024/01/17 05:32:44;;;;;;;0.50;0.10;;;-0.90;22.90;;;;;;5047646;28;20792;-73
2024/01/17 05:35:14;;;;;;;0.50;0.10;;;-0.80;23.30;;;;;;5047714;28;20524;-73
2024/01/17 05:37:42;;;;;;;0.50;0.30;;;-0.90;23.30;;;;;;5049824;28;20838;-73
2024/01/17 05:40:11;;;;;;;0.50;0.20;;;-0.90;22.80;;;;;;5051378;28;20458;-74
2024/01/17 05:42:40;;;;;;;0.50;0.10;;;-0.90;23.00;;;;;;5053444;28;20442;-74
2024/01/17 05:45:08;;;;;;;0.50;0.10;;;-1.00;22.80;;;;;;5053139;28;20550;-74
2024/01/17 05:47:37;;;;;;;0.50;0.10;;;-0.90;23.80;;;;;;5053015;28;21001;-74
2024/01/17 05:50:08;;;;;;;0.50;0.10;;;-0.90;23.70;;;;;;5051707;28;20441;-73
2024/01/17 05:52:38;;;;;;;0.50;0.10;;;-0.90;23.40;;;;;;5053730;28;21007;-73
2024/01/17 05:55:07;;;;;;;0.50;0.10;;;-0.90;24.00;;;;;;5049996;28;20464;-74
2024/01/17 05:57:36;;;;;;;0.50;0.10;;;-0.80;23.90;;;;;;5047566;28;20509;-74
2024/01/17 06:00:04;;;;;;;0.50;0.10;;;-0.80;23.90;;;;;;5051843;28;20516;-74
2024/01/17 06:02:32;;;;;;;0.50;0.10;;;-0.80;23.70;;;;;;5054567;28;20993;-74
2024/01/17 06:05:01;;;;;;;0.50;0.10;;;-0.80;23.80;;;;;;5045137;28;20939;-75
2024/01/17 06:07:30;;;;;;;1.90;1.80;;;;;;;;;;5052838;28;21069;-74
2024/01/17 06:09:58;;;;;;;0.60;0.30;;;-0.70;23.90;;;;;;5047382;28;20463;-74
2024/01/17 06:12:27;;;;;;;0.50;0.10;;;-0.80;22.70;;;;;;5045572;28;20450;-74
2024/01/17 06:14:54;;;;;;;0.50;0.10;;;-0.80;23.00;;;;;;5048502;28;20540;-72
2024/01/17 06:17:22;;;;;;;0.50;0.10;;;-0.80;22.90;;;;;;5050699;28;20494;-74
2024/01/17 06:19:50;;;;;;;0.50;0.10;;;-0.80;23.30;;;;;;5051522;28;20492;-74
2024/01/17 06:22:18;;;;;;;0.50;0.10;;;-0.80;23.20;;;;;;5051045;28;20446;-74
2024/01/17 06:24:48;;;;;;;0.50;0.17;;;-0.80;23.30;;;;;;5053000;28;20445;-73
2024/01/17 06:27:16;;;;;;;0.50;0.10;;;-0.80;23.90;;;;;;5052345;28;20542;-73
2024/01/17 06:29:44;;;;;;;0.50;0.10;;;-0.70;24.00;;;;;;5052938;28;20984;-73
2024/01/17 06:32:13;;;;;;;0.50;0.10;;;-0.70;23.70;;;;;;5050496;28;20465;-73
2024/01/17 06:34:43;;;;;;;0.50;0.20;;;-0.70;23.60;;;;;;5044530;28;20530;-75
2024/01/17 06:37:11;;;;;;;0.50;0.10;;;-0.70;23.50;;;;;;5052279;28;20509;-74
2024/01/17 06:39:40;;;;;;;0.50;0.10;;;-0.70;23.50;;;;;;5052413;28;20989;-73
2024/01/17 06:42:09;;;;;;;9.93;8.87;;;;;;;;;;5050783;28;20441;-74
2024/01/17 06:44:38;;;;;;;0.50;0.10;;;-0.60;23.70;;;;;;5047784;28;20450;-71
2024/01/17 06:47:06;;;;;;;0.50;0.10;;;-0.70;22.30;;;;;;5050890;28;20496;-73
2024/01/17 06:49:35;;;;;;;0.50;0.10;;;-0.60;22.60;;;;;;5051980;28;20499;-75
2024/01/17 06:52:03;;;;;;;0.50;0.10;;;-0.70;22.20;;;;;;5052396;28;20454;-74
2024/01/17 06:54:32;;;;;;;0.50;0.10;;;;;;;;;;5047713;28;22125;-73
2024/01/17 06:57:00;;;;;;;0.50;0.10;;;-0.70;23.90;;;;;;5048305;28;20487;-72
2024/01/17 06:59:29;;;;;;;0.50;0.10;;;-0.70;24.10;;;;;;5049869;28;20457;-73
2024/01/17 07:01:57;;;;;;;0.50;0.10;;;-0.60;25.10;;;;;;5050199;28;20462;-73
2024/01/17 07:04:25;;;;;;;0.50;0.10;;;-0.50;25.00;;;;;;5051557;28;20485;-72
2024/01/17 07:06:53;;;;;;;0.50;0.10;;;-0.50;25.40;;;;;;5053799;28;20531;-73
2024/01/17 07:09:21;;;;;;;0.50;0.10;;;-0.40;25.10;;;;;;5046354;28;20446;-73
2024/01/17 07:11:49;;;;;;;0.50;0.10;;;-0.50;24.90;;;;;;5053850;28;20450;-74
2024/01/17 07:14:17;;;;;;;0.50;0.10;;;-0.50;24.70;;;;;;5049299;28;20489;-73
2024/01/17 07:16:48;;;;;;;0.50;0.20;;;-0.50;24.90;;;;;;5053016;28;20604;-72
2024/01/17 07:19:16;;;;;;;0.50;0.10;;;-0.50;24.70;;;;;;5044236;28;20458;-74
2024/01/17 07:21:44;;;;;;;0.50;0.10;;;-0.50;25.10;;;;;;5049787;28;20454;-75
2024/01/17 07:24:12;;;;;;;1.33;1.23;;;-0.50;24.90;;;;;;5051772;28;20508;-75
2024/01/17 07:26:40;;;;;;;0.50;0.10;;;-0.40;25.70;;;;;;5038072;28;20815;-75
2024/01/17 07:29:08;;;;;;;0.50;0.10;;;-0.40;25.50;;;;;;5042047;28;20446;-73
2024/01/17 07:31:36;;;;;;;0.50;0.10;;;-0.30;25.60;;;;;;5046203;28;20478;-74
2024/01/17 07:34:05;;;;;;;0.50;0.10;;;-0.30;24.90;;;;;;5049082;28;20481;-74
2024/01/17 07:36:34;;;;;;;0.50;0.10;;;-0.20;25.20;;;;;;5049743;28;20543;-74
2024/01/17 07:39:02;;;;;;;0.50;0.10;;;-0.20;24.30;;;;;;5048132;28;20477;-75
2024/01/17 07:41:30;;;;;;;1.23;1.23;;;-0.20;23.90;;;;;;5044178;28;20474;-74
2024/01/17 07:43:57;;;;;;;0.50;0.10;;;-0.20;24.00;;;;;;5046555;28;20471;-75
2024/01/17 07:46:25;;;;;;;0.50;0.10;;;-0.10;24.10;;;;;;5043673;28;21024;-75
2024/01/17 07:48:54;;;;;;;0.50;0.10;;;-0.20;23.10;;;;;;5051259;28;20442;-75
2024/01/17 07:51:23;;;;;;;0.50;0.20;;;-0.20;22.70;;;;;;5051575;28;20442;-73
2024/01/17 07:53:51;;;;;;;0.60;0.40;;;-0.40;22.30;;;;;;5051745;28;20453;-73
2024/01/17 07:56:19;;;;;;;0.50;0.10;;;-0.30;23.20;;;;;;5050731;28;20470;-74
2024/01/17 07:58:48;;;;;;;0.60;0.50;;;-0.20;23.50;;;;;;5046049;28;20933;-75
2024/01/17 08:01:16;;;;;;;0.50;0.10;;;-0.20;23.10;;;;;;5046280;28;20466;-75
2024/01/17 08:03:44;;;;;;;0.50;0.30;;;-0.10;23.90;;;;;;5044590;28;20443;-75
2024/01/17 08:06:12;;;;;;;0.50;0.10;;;-0.10;23.80;;;;;;5041221;28;20484;-75
2024/01/17 08:08:41;;;;;;;0.60;0.50;;;-0.10;24.40;;;;;;5045199;28;20442;-73
2024/01/17 08:11:10;;;;;;;0.50;0.10;;;-0.10;23.80;;;;;;5049117;28;20810;-74
2024/01/17 08:13:38;;;;;;;0.50;0.10;;;0.00;23.70;;;;;;5051763;28;20956;-74
2024/01/17 08:16:07;;;;;;;0.50;0.10;;;0.00;23.20;;;;;;5058825;28;20461;-74
2024/01/17 08:18:34;;;;;;;0.50;0.10;;;0.00;22.80;;;;;;5050616;28;20676;-74
2024/01/17 08:21:02;;;;;;;0.50;0.10;;;0.00;23.10;;;;;;5047623;28;20981;-74
2024/01/17 08:23:30;;;;;;;0.50;0.10;;;0.00;23.60;;;;;;5048442;28;21016;-73
2024/01/17 08:26:00;;;;;;;0.50;0.10;;;0.10;24.50;;;;;;5057330;28;20462;-73
2024/01/17 08:28:28;;;;;;;1.47;1.37;;;0.00;24.00;;;;;;5051477;28;20871;-74
2024/01/17 08:30:56;;;;;;;0.50;0.10;;;0.00;27.50;;;;;;5045313;28;20462;-74
2024/01/17 08:33:24;;;;;;;0.50;0.10;;;0.10;30.90;;;;;;5050106;28;20609;-73
2024/01/17 08:35:52;;;;;;;0.60;0.20;;;0.10;33.50;;;;;;5050998;28;20442;-74
2024/01/17 08:38:20;;;;;;;0.50;0.17;;;0.20;34.20;;;;;;5046039;28;21028;-73
2024/01/17 08:40:48;;;;;;;0.50;0.10;;;0.20;32.90;;;;;;5050571;28;20453;-73
2024/01/17 08:43:17;;;;;;;0.50;0.10;;;0.30;31.40;;;;;;5051154;28;20439;-75
2024/01/17 08:45:45;;;;;;;0.50;0.10;;;0.40;30.00;;;;;;5050063;28;20438;-74
2024/01/17 08:48:14;;;;;;;0.50;0.10;;;0.40;29.70;;;;;;5045797;28;20462;-73
2024/01/17 08:50:42;;;;;;;0.50;0.20;;;0.40;29.50;;;;;;5046678;28;20918;-73
2024/01/17 08:53:10;;;;;;;0.50;0.10;;;0.50;28.70;;;;;;5048761;28;20464;-74
2024/01/17 08:55:38;;;;;;;0.50;0.10;;;0.50;26.80;;;;;;5046571;28;22186;-73
2024/01/17 08:58:06;;;;;;;0.50;0.10;;;0.40;26.00;;;;;;5046852;28;20478;-74
2024/01/17 09:00:36;;;;;;;0.50;0.10;;;0.40;25.50;;;;;;5058701;28;20488;-72
2024/01/17 09:03:05;;;;;;;1.43;1.33;;;0.40;26.20;;;;;;5050198;28;20450;-72
2024/01/17 09:05:33;;;;;;;0.50;0.10;;;0.40;26.10;;;;;;5042322;28;20457;-73
2024/01/17 09:08:01;;;;;;;0.50;0.10;;;0.40;26.80;;;;;;5047085;28;20471;-73
2024/01/17 09:10:29;;;;;;;0.50;0.10;;;0.40;27.10;;;;;;5047329;28;20446;-72
2024/01/17 09:12:57;;;;;;;0.50;0.10;;;0.40;35.90;;;;;;5049006;28;20482;-71
2024/01/17 09:15:25;;;;;;;0.50;0.10;;;0.30;26.70;;;;;;5070935;28;20476;-72
2024/01/17 09:17:54;;;;;;;0.50;0.10;;;0.30;28.30;;;;;;5045944;28;20478;-72
2024/01/17 09:20:22;;;;;;;0.50;0.10;;;0.30;29.00;;;;;;5030947;28;20448;-71
2024/01/17 09:22:50;;;;;;;0.50;0.10;;;0.30;29.90;;;;;;5026155;28;21190;-72
2024/01/17 09:25:19;;;;;;;0.50;0.10;;;0.40;31.10;;;;;;5032465;28;20558;-71
2024/01/17 09:27:46;;;;;;;0.50;0.10;;;0.40;32.80;;;;;;5031135;28;20525;-71
2024/01/17 09:30:14;;;;;;;0.60;0.50;;;0.50;35.50;;;;;;5029980;28;20458;-72
2024/01/17 09:32:44;;;;;;;0.50;0.10;;;0.50;36.70;;;;;;5031493;28;20443;-72
2024/01/17 09:35:13;;;;;;;0.50;0.10;;;0.60;36.40;;;;;;5029776;28;20443;-72
2024/01/17 09:37:41;;;;;;;0.50;0.10;;;0.60;37.20;;;;;;5029619;28;20518;-72
2024/01/17 09:40:12;;;;;;;0.50;0.10;;;0.70;37.10;;;;;;5026947;28;20463;-73
2024/01/17 09:42:41;;;;;;;0.50;0.10;;;0.70;36.80;;;;;;5029140;28;20447;-72
2024/01/17 09:45:10;;;;;;;0.50;0.10;;;0.70;36.80;;;;;;5030840;28;20839;-72
2024/01/17 09:47:42;;;;;;;0.50;0.10;;;0.70;36.60;;;;;;5028561;28;20528;-72
2024/01/17 09:50:10;;;;;;;0.50;0.10;;;0.70;37.60;;;;;;5033608;28;20455;-73
2024/01/17 09:52:41;;;;;;;1.90;1.80;;;0.70;38.90;;;;;;5032591;28;20455;-71
2024/01/17 09:55:10;;;;;;;0.50;0.10;;;0.80;39.80;;;;;;5030585;28;20439;-70
2024/01/17 09:57:45;;;;;;;0.50;0.10;;;0.80;40.60;;;;;;5037553;28;20490;-71
2024/01/17 10:00:14;;;;;;;0.50;0.20;;;0.90;42.40;;;;;;5036221;28;20973;-73
2024/01/17 10:02:44;;;;;;;0.50;0.10;;;0.90;42.50;;;;;;5038334;28;20486;-71
2024/01/17 10:05:13;;;;;;;1.00;0.80;;;0.80;42.70;;;;;;5030567;28;20455;-73
2024/01/17 10:07:45;;;;;;;0.50;0.10;;;0.80;43.30;;;;;;5029608;28;20481;-72
2024/01/17 10:10:13;;;;;;;0.50;0.10;;;0.90;44.90;;;;;;5026713;28;20494;-72
2024/01/17 10:12:42;;;;;;;0.50;0.30;;;0.90;46.80;;;;;;5027620;28;20956;-72
2024/01/17 10:15:13;;;;;;;0.60;0.20;;;0.90;47.60;;;;;;5033163;28;20873;-71
2024/01/17 10:17:41;;;;;;;0.50;0.10;;;1.00;48.70;;;;;;5026064;28;20539;-71
2024/01/17 10:20:10;;;;;;;0.50;0.10;;;1.00;49.70;;;;;;5017346;28;20547;-74
2024/01/17 10:22:41;;;;;;;0.50;0.10;;;1.00;50.00;;;;;;5021762;28;20988;-71
2024/01/17 10:25:11;;;;;;;0.50;0.10;;;0.90;51.60;;;;;;5026588;28;20509;-71
2024/01/17 10:27:40;;;;;;;0.50;0.23;;;0.90;52.80;;;;;;5019231;28;20518;-72
2024/01/17 10:30:11;;;;;;;22.73;21.27;;;0.90;53.20;;;;;;5013273;28;20495;-72
2024/01/17 10:32:41;;;;;;;0.50;0.10;;;0.90;53.70;;;;;;5028364;28;20527;-73
2024/01/17 10:35:11;;;;;;;0.50;0.10;;;0.90;55.00;;;;;;5030289;28;20497;-73
2024/01/17 10:37:39;;;;;;;0.50;0.10;;;0.90;55.70;;;;;;5020160;28;20471;-71
2024/01/17 10:40:09;;;;;;;0.50;0.10;;;0.90;57.40;;;;;;5021569;28;20448;-73
2024/01/17 10:42:40;;;;;;;0.50;0.10;;;1.00;58.30;;;;;;5024205;28;20453;-73
2024/01/17 10:45:18;;;;;;;0.50;0.10;;;0.90;60.10;;;;;;5024385;28;20455;-73
2024/01/17 10:47:48;;;;;;;0.50;0.10;;;0.90;61.20;;;;;;5031666;28;20486;-75
2024/01/17 10:50:16;;;;;;;0.50;0.10;;;0.90;63.30;;;;;;5031026;28;21173;-72
2024/01/17 10:52:50;;;;;;;0.50;0.10;;;1.00;64.50;;;;;;5026595;28;20451;-74
2024/01/17 10:55:22;;;;;;;0.50;0.10;;;1.00;66.80;;;;;;5031638;28;20462;-72
2024/01/17 10:57:54;;;;;;;0.50;0.20;;;1.00;68.60;;;;;;5024761;28;20893;-71
2024/01/17 11:00:29;;;;;;;0.67;0.60;;;1.00;71.20;;;;;;5032556;28;20486;-72
2024/01/17 11:02:59;;;;;;;0.50;0.10;;;1.00;82.10;;;;;;5022949;28;21039;-72
2024/01/17 11:05:30;;;;;;;0.50;0.43;;;1.10;78.40;;;;;;5028319;28;20446;-72
2024/01/17 11:08:00;;;;;;;0.50;0.10;;;1.10;81.70;;;;;;5023737;28;20462;-71
2024/01/17 11:10:29;;;;;;;0.50;0.10;;;1.10;83.40;;;;;;5029303;28;20821;-72
2024/01/17 11:12:58;;;;;;;0.50;0.10;;;1.10;85.80;;;;;;5025806;28;20498;-73
2024/01/17 11:15:28;;;;;;;0.50;0.30;;;1.20;88.50;;;;;;5020816;28;20502;-72
2024/01/17 11:18:00;;;;;;;0.50;0.10;;;1.20;89.90;;;;;;5026770;28;20489;-72
2024/01/17 11:20:28;;;;;;;0.50;0.10;;;1.20;91.10;;;;;;5023346;28;20438;-71
2024/01/17 11:23:01;;;;;;;0.50;0.10;;;1.80;96.40;;;;;;5023954;28;20483;-72
2024/01/17 11:25:34;;;;;;;0.50;0.10;;;1.20;94.00;;;;;;5030259;28;20436;-72
2024/01/17 11:28:12;;;;;;;0.50;0.10;;;1.20;95.30;;;;;;5033757;28;20447;-71
2024/01/17 11:30:58;;;;;;;2.03;1.93;;;1.20;95.70;;;;;;5030061;28;20483;-70
2024/01/17 11:33:27;;;;;;;0.50;0.10;;;1.10;95.80;;;;;;5021544;28;20438;-72
2024/01/17 11:35:55;;;;;;;0.50;0.10;;;1.30;96.60;;;;;;5026048;28;20924;-74
2024/01/17 11:38:32;;;;;;;0.50;0.10;;;1.10;97.40;;;;;;5012967;28;20440;-70
2024/01/17 11:41:05;;;;;;;0.50;0.10;;;1.10;99.90;;;;;;5020032;28;20450;-72
2024/01/17 11:43:38;;;;;;;0.50;0.10;;;1.00;99.90;;;;;;5030569;28;20486;-70
2024/01/17 11:46:09;;;;;;;0.50;0.10;;;1.10;99.90;;;;;;5032233;28;20477;-72
2024/01/17 11:48:39;;;;;;;0.50;0.10;;;1.10;99.90;;;;;;5024114;28;20466;-71
2024/01/17 11:51:15;;;;;;;0.50;0.10;;;1.10;99.90;;;;;;5031984;28;20450;-72
2024/01/17 11:53:46;;;;;;;0.50;0.20;;;1.20;99.90;;;;;;5016294;28;20478;-72
2024/01/17 11:56:16;;;;;;;0.50;0.10;;;1.20;99.90;;;;;;5015039;28;20894;-74
2024/01/17 11:58:47;;;;;;;10.60;10.20;;;1.20;99.90;;;;;;5024992;28;20566;-74
2024/01/17 12:01:19;;;;;;;0.50;0.10;;;1.20;99.90;;;;;;5022849;28;20487;-72
2024/01/17 12:03:47;;;;;;;1.00;0.83;;;1.20;99.90;;;;;;5022960;28;20553;-72
2024/01/17 12:06:16;;;;;;;0.50;0.10;;;1.30;99.90;;;;;;5022785;28;20474;-72
2024/01/17 12:08:45;;;;;;;0.50;0.27;;;1.30;99.90;;;;;;5018646;28;20444;-70
2024/01/17 12:11:14;;;;;;;0.50;0.10;;;1.20;99.90;;;;;;5019676;28;20458;-73
2024/01/17 12:13:43;;;;;;;0.50;0.10;;;1.30;99.90;;;;;;5017522;28;20447;-72
2024/01/17 12:16:12;;;;;;;1.90;1.80;;;1.30;99.90;;;;;;5023020;28;20526;-72
2024/01/17 12:18:40;;;;;;;1.37;1.27;;;1.30;99.90;;;;;;5022530;28;20447;-72
2024/01/17 12:21:09;;;;;;;0.50;0.10;;;;;;;;;;5024747;28;20459;-74
2024/01/17 12:23:38;;;;;;;0.60;0.50;;;1.20;99.90;;;;;;5027361;28;20439;-72
2024/01/17 12:26:06;;;;;;;0.50;0.10;;;1.20;99.90;;;;;;5022860;28;20467;-73
2024/01/17 12:28:33;;;;;;;0.70;0.67;;;1.20;99.90;;;;;;5019035;28;20502;-74
2024/01/17 12:31:04;;;;;;;0.50;0.10;;;1.20;99.90;;;;;;5026114;28;20481;-72
2024/01/17 12:33:34;;;;;;;0.60;0.50;;;1.20;99.90;;;;;;5020704;28;20461;-74
2024/01/17 12:36:04;;;;;;;0.70;0.10;;;1.20;99.90;;;;;;5020250;28;20519;-73
2024/01/17 12:38:34;;;;;;;1.50;1.40;;;1.20;99.90;;;;;;5025547;28;20456;-74
2024/01/17 12:41:04;;;;;;;0.60;0.40;;;1.10;99.90;;;;;;5024122;28;20495;-75
2024/01/17 12:43:35;;;;;;;0.90;0.77;;;1.80;99.90;;;;;;5029566;28;20485;-75
2024/01/17 12:46:05;;;;;;;26.50;11.07;;;1.10;99.90;;;;;;5021709;28;20462;-74
2024/01/17 12:48:35;;;;;;;0.70;0.57;;;1.20;99.90;;;;;;5018966;28;20940;-74
2024/01/17 12:51:06;;;;;;;0.50;0.10;;;1.20;99.90;;;;;;5025932;28;20510;-75
2024/01/17 12:53:39;;;;;;;0.50;0.10;;;1.20;99.90;;;;;;5021747;28;20963;-74
2024/01/17 12:56:09;;;;;;;0.50;0.10;;;1.20;99.90;;;;;;5022561;28;20498;-76
2024/01/17 12:58:37;;;;;;;0.50;0.10;;;1.20;99.90;;;;;;5019150;28;20452;-74
2024/01/17 13:01:05;;;;;;;0.50;0.10;;;1.20;99.90;;;;;;5026196;28;20497;-74